Terminal Aerodrome Forecast
Issued by NWS

Home | Current Version | Previous Version | Text Only | Print | Product List | Glossary Off
Versions: 1 2 3 4 5 6 7 8 9 10 11 12 13 14 15 16 17 18 19 20

000
FTUS43 KGRB 290900 AAA
TAFCWA
TAF AMD
KCWA 290928Z 2909/3006 11006KT 6SM BR VCTS SCT005 BKN015CB
      TEMPO 2909/2913 3SM SHRA BKN005
     FM291300 17007KT 4SM -SHRA BR OVC009
     FM291600 18008KT P6SM VCSH BKN015 OVC025
     FM292000 19009KT 4SM -SHRA SCT025 OVC035 PROB30 2920/2924 3SM
      TSRA BR BKN025CB
      AMD LTD TO CLD VIS AND WIND TIL 291200=

USA.gov is the U.S. government's official web portal to all federal, state and local government web resources and services.